Time;durP1;ratioP1;P1;durP2;ratioP2;P2;SDS_P1;SDS_P2;PMS_P1;PMS_P2;Temp;Humidity;BMP_temperature;BMP_pressure;BME280_temperature;BME280_humidity;BME280_pressure;Samples;Min_cycle;Max_cycle;Signal;HPM_P1;HPM_P2
2023/10/05 00:03:44;;;;;;;7.57;1.95;;;;;;;7.02;100.00;99846.38;5044607;28;20025;-80
2023/10/05 00:06:14;;;;;;;5.53;2.30;;;;;;;6.91;100.00;99851.13;5039329;28;20044;-78
2023/10/05 00:08:47;;;;;;;3.25;1.50;;;;;;;6.75;100.00;99841.91;5041312;28;20025;-78
2023/10/05 00:11:29;;;;;;;3.92;2.10;;;;;;;6.68;100.00;99815.78;5060124;28;20029;-79
2023/10/05 00:13:57;;;;;;;5.40;1.77;;;;;;;6.85;100.00;99844.53;5035273;28;20109;-79
2023/10/05 00:16:23;;;;;;;5.10;2.23;;;;;;;6.88;100.00;99841.53;5032363;28;20021;-79
2023/10/05 00:18:50;;;;;;;5.53;2.10;;;;;;;6.79;100.00;99840.59;5041748;28;20308;-79
2023/10/05 00:21:19;;;;;;;5.50;2.10;;;;;;;6.77;100.00;99839.91;5033228;28;20122;-78
2023/10/05 00:23:50;;;;;;;7.57;1.97;;;;;;;6.63;100.00;99831.50;5026964;28;20057;-80
2023/10/05 00:26:15;;;;;;;6.10;1.90;;;;;;;6.48;100.00;99821.31;5024284;28;20265;-78
2023/10/05 00:28:45;;;;;;;4.45;1.92;;;;;;;6.26;100.00;99786.78;5027382;28;20060;-78
2023/10/05 00:31:10;;;;;;;;;;;;;;;6.58;100.00;99840.06;5033765;28;20025;-78
2023/10/05 00:33:36;;;;;;;4.40;2.17;;;;;;;6.35;100.00;99804.69;5040696;28;19976;-78
2023/10/05 00:36:04;;;;;;;5.22;2.38;;;;;;;6.42;100.00;99816.53;5038674;28;20025;-78
2023/10/05 00:38:30;;;;;;;6.25;2.17;;;;;;;6.46;100.00;99814.38;5034672;28;20030;-79
2023/10/05 00:41:03;;;;;;;5.32;1.90;;;;;;;6.54;100.00;99817.16;5043943;28;20056;-78
2023/10/05 00:43:28;;;;;;;4.18;1.70;;;;;;;6.59;100.00;99814.84;5033066;28;20100;-78
2023/10/05 00:45:58;;;;;;;2.30;1.70;;;;;;;6.61;100.00;99817.41;5039539;28;20036;-79
2023/10/05 00:48:40;;;;;;;8.30;1.92;;;;;;;6.63;100.00;99832.38;5037375;28;20021;-78
2023/10/05 00:51:08;;;;;;;5.55;2.33;;;;;;;6.53;100.00;99810.94;5024545;28;20030;-79
2023/10/05 00:53:35;;;;;;;4.13;2.00;;;;;;;6.56;100.00;99820.53;5039698;28;20089;-79
2023/10/05 00:56:09;;;;;;;9.63;2.35;;;;;;;6.70;100.00;99817.31;5035359;28;20052;-79
2023/10/05 00:58:42;;;;;;;4.32;2.05;;;;;;;6.75;100.00;99808.78;5037478;28;20065;-79
2023/10/05 01:01:15;;;;;;;5.22;2.20;;;;;;;6.84;100.00;99817.75;5033388;28;20032;-80
2023/10/05 01:09:39;;;;;;;4.97;2.30;;;;;;;6.82;100.00;99803.66;5040318;28;20118;-79
2023/10/05 01:14:53;;;;;;;5.60;2.58;;;;;;;6.74;100.00;99801.72;5023481;28;20033;-79
2023/10/05 01:17:22;;;;;;;9.50;2.43;;;;;;;6.74;100.00;99786.44;5038587;28;20026;-79
2023/10/05 01:19:55;;;;;;;7.50;2.40;;;;;;;6.75;100.00;99793.50;5036255;28;20032;-78
2023/10/05 01:22:21;;;;;;;5.65;2.63;;;;;;;6.80;100.00;99804.63;5039409;28;20049;-80
2023/10/05 01:24:51;;;;;;;6.20;2.50;;;;;;;6.78;100.00;99793.19;5036306;28;20037;-80
2023/10/05 01:27:18;;;;;;;8.35;2.65;;;;;;;6.75;100.00;99777.34;5035592;28;20318;-78
2023/10/05 01:29:43;;;;;;;6.30;3.05;;;;;;;6.88;100.00;99782.34;5054726;28;20051;-78
2023/10/05 01:32:10;;;;;;;6.65;2.17;;;;;;;7.06;100.00;99803.84;5051869;28;20033;-79
2023/10/05 01:34:36;;;;;;;4.93;2.50;;;;;;;7.01;100.00;99796.22;5041758;28;20056;-81
2023/10/05 01:37:03;;;;;;;9.10;2.90;;;;;;;6.89;100.00;99783.19;5046764;28;20045;-76
2023/10/05 01:39:32;;;;;;;7.38;2.25;;;;;;;6.93;100.00;99790.78;5033687;28;20137;-80
2023/10/05 01:41:59;;;;;;;;;;;;;;;7.03;100.00;99799.63;5046060;28;20053;-78
2023/10/05 01:44:25;;;;;;;4.80;2.55;;;;;;;6.99;100.00;99787.47;5040963;28;19951;-80
2023/10/05 01:46:55;;;;;;;6.50;2.08;;;;;;;6.97;100.00;99781.41;5043995;28;20021;-80
2023/10/05 01:49:20;;;;;;;7.80;2.10;;;;;;;6.87;100.00;99774.44;5035560;28;20041;-77
2023/10/05 01:51:47;;;;;;;6.95;2.10;;;;;;;6.91;100.00;99767.72;5042623;28;20071;-78
2023/10/05 01:54:13;;;;;;;4.32;2.05;;;;;;;6.93;100.00;99780.03;5038367;28;20218;-79
2023/10/05 01:56:39;;;;;;;4.40;1.88;;;;;;;6.90;100.00;99772.28;5033957;28;20026;-79
2023/10/05 01:59:06;;;;;;;3.15;1.65;;;;;;;6.92;100.00;99782.91;5041395;28;20234;-79
2023/10/05 02:01:36;;;;;;;4.78;1.90;;;;;;;6.90;100.00;99774.97;5036601;28;20025;-79
2023/10/05 02:04:02;;;;;;;3.22;1.75;;;;;;;6.85;100.00;99765.69;5028020;28;20030;-78
2023/10/05 02:06:28;;;;;;;5.60;1.70;;;;;;;6.80;100.00;99747.31;5034683;28;20188;-78
2023/10/05 02:08:54;;;;;;;3.97;2.10;;;;;;;6.84;100.00;99748.69;5032036;28;20056;-79
2023/10/05 02:11:27;;;;;;;4.45;2.08;;;;;;;6.86;100.00;99762.81;5039819;28;20033;-79
2023/10/05 02:13:53;;;;;;;4.78;1.95;;;;;;;6.75;100.00;99766.59;5032598;28;20076;-80
2023/10/05 02:16:20;;;;;;;2.88;1.63;;;;;;;6.64;100.00;99756.09;5041266;28;20036;-79
2023/10/05 02:18:47;;;;;;;3.88;2.30;;;;;;;6.53;100.00;99756.34;5042237;28;20276;-80
2023/10/05 02:21:17;;;;;;;3.65;2.30;;;;;;;6.60;100.00;99770.81;5037089;28;20307;-78
2023/10/05 02:23:44;;;;;;;6.18;2.28;;;;;;;6.49;100.00;99754.94;5042246;28;20043;-80
2023/10/05 02:26:33;;;;;;;4.03;2.15;;;;;;;6.51;100.00;99761.00;5039679;28;20048;-79
2023/10/05 02:28:58;;;;;;;;;;;;;;;6.68;100.00;99781.69;5030651;28;20084;-80
2023/10/05 02:31:28;;;;;;;4.45;2.00;;;;;;;6.51;100.00;99775.28;5033185;28;19917;-78
2023/10/05 02:33:54;;;;;;;8.35;2.40;;;;;;;6.56;100.00;99770.31;5025887;28;20088;-79
2023/10/05 02:36:26;;;;;;;5.32;2.60;;;;;;;6.41;100.00;99738.72;5040498;28;20041;-79
2023/10/05 02:38:54;;;;;;;6.38;2.17;;;;;;;6.61;100.00;99764.47;5032044;28;20053;-78
2023/10/05 02:41:37;;;;;;;4.68;1.92;;;;;;;6.57;100.00;99761.22;5038863;28;20315;-79
2023/10/05 02:46:47;;;;;;;9.93;2.50;;;;;;;6.57;100.00;99758.53;5035681;28;20109;-79
2023/10/05 02:49:18;;;;;;;5.50;2.47;;;;;;;6.62;100.00;99760.75;5040145;28;20025;-80
2023/10/05 02:51:43;;;;;;;5.53;2.03;;;;;;;6.63;100.00;99757.09;5032625;28;20038;-79
2023/10/05 02:54:10;;;;;;;4.30;2.00;;;;;;;6.55;100.00;99739.06;5042125;28;20260;-79
2023/10/05 02:56:37;;;;;;;3.60;2.03;;;;;;;6.72;100.00;99760.69;5046361;28;20032;-80
2023/10/05 02:59:03;;;;;;;3.70;2.03;;;;;;;6.82;100.00;99766.84;5043079;28;20029;-80
2023/10/05 03:01:32;;;;;;;4.75;2.42;;;;;;;6.83;100.00;99760.44;5037164;28;20033;-79
2023/10/05 03:04:09;;;;;;;2.97;2.20;;;;;;;6.82;100.00;99741.78;5034670;28;20028;-79
2023/10/05 03:06:35;;;;;;;4.15;2.45;;;;;;;6.81;100.00;99738.22;5045779;28;20044;-80
2023/10/05 03:09:07;;;;;;;5.25;2.60;;;;;;;6.92;100.00;99753.31;5040620;28;20277;-78
2023/10/05 03:11:40;;;;;;;6.28;2.22;;;;;;;6.97;100.00;99754.53;5043706;28;20100;-79
2023/10/05 03:14:06;;;;;;;4.18;2.05;;;;;;;7.12;100.00;99748.56;5042337;28;20040;-78
2023/10/05 03:16:43;;;;;;;6.07;2.30;;;;;;;7.09;100.00;99744.31;5042814;28;20161;-80
2023/10/05 03:19:14;;;;;;;5.25;2.40;;;;;;;7.10;100.00;99742.47;5039332;28;20030;-79
2023/10/05 03:21:40;;;;;;;7.90;2.28;;;;;;;7.21;100.00;99763.75;5038378;28;20028;-78
2023/10/05 03:24:13;;;;;;;5.22;2.35;;;;;;;7.11;100.00;99744.19;5038161;28;20080;-76
2023/10/05 03:26:42;;;;;;;3.58;2.28;;;;;;;7.04;100.00;99741.25;5041579;28;20400;-76
2023/10/05 03:29:11;;;;;;;8.00;2.25;;;;;;;7.17;100.00;99765.06;5046116;28;20018;-77
2023/10/05 03:31:43;;;;;;;10.35;2.60;;;;;;;7.06;100.00;99741.97;5039567;28;20097;-78
2023/10/05 03:34:09;;;;;;;7.07;2.20;;;;;;;7.18;100.00;99759.53;5034760;28;20025;-75
2023/10/05 03:36:35;;;;;;;4.50;2.30;;;;;;;7.17;100.00;99775.84;5034938;28;20271;-82
2023/10/05 03:39:06;;;;;;;4.93;2.67;;;;;;;6.98;100.00;99747.28;5038530;28;20025;-79
2023/10/05 03:41:31;;;;;;;7.60;2.45;;;;;;;7.08;100.00;99768.72;5037116;28;20032;-77
2023/10/05 03:44:01;;;;;;;3.95;2.40;;;;;;;7.05;100.00;99772.56;5036853;28;20025;-80
2023/10/05 03:46:26;;;;;;;10.23;2.28;;;;;;;6.93;100.00;99757.66;5038578;28;20108;-79
2023/10/05 03:48:59;;;;;;;8.23;3.00;;;;;;;6.99;100.00;99767.78;5034265;28;20046;-80
2023/10/05 03:51:25;;;;;;;6.70;2.40;;;;;;;6.99;100.00;99767.78;5041118;28;20060;-78
2023/10/05 03:53:51;;;;;;;7.43;2.35;;;;;;;6.96;100.00;99768.13;5044443;28;20025;-79
2023/10/05 03:56:19;;;;;;;5.57;2.47;;;;;;;7.10;100.00;99782.84;5034304;28;20192;-82
2023/10/05 03:58:46;;;;;;;4.90;2.53;;;;;;;6.95;100.00;99764.59;5029339;28;20022;-77
2023/10/05 04:01:12;;;;;;;5.18;2.50;;;;;;;7.12;100.00;99795.13;5041481;28;20025;-77
2023/10/05 04:03:38;;;;;;;5.13;2.13;;;;;;;7.08;100.00;99779.47;5038624;28;20028;-76
2023/10/05 04:06:14;;;;;;;4.70;2.30;;;;;;;7.10;100.00;99775.63;5026033;28;20341;-78
2023/10/05 04:08:39;;;;;;;7.03;2.70;;;;;;;7.19;100.00;99800.75;5033963;28;20262;-79
2023/10/05 04:11:06;;;;;;;8.75;2.65;;;;;;;7.12;100.00;99779.00;5045793;28;20021;-77
2023/10/05 04:13:32;;;;;;;6.93;2.58;;;;;;;7.07;100.00;99767.00;5043655;28;20032;-76
2023/10/05 04:15:58;;;;;;;5.55;2.50;;;;;;;7.17;100.00;99779.38;5041334;28;20084;-80
2023/10/05 04:18:24;;;;;;;4.38;1.90;;;;;;;7.23;100.00;99788.66;5029513;28;20030;-78
2023/10/05 04:20:55;;;;;;;6.05;2.38;;;;;;;7.13;100.00;99748.41;5038362;28;20269;-85
2023/10/05 04:23:25;;;;;;;3.85;2.15;;;;;;;7.28;100.00;99777.41;5041532;28;20230;-83
2023/10/05 04:25:52;;;;;;;5.75;3.13;;;;;;;7.23;100.00;99770.69;5042836;28;20103;-79
2023/10/05 04:28:22;;;;;;;8.52;2.80;;;;;;;7.05;100.00;99745.66;5038627;28;20014;-79
2023/10/05 04:30:49;;;;;;;7.53;2.83;;;;;;;7.23;100.00;99781.44;5037011;28;20049;-78
2023/10/05 04:33:14;;;;;;;6.15;2.75;;;;;;;7.23;100.00;99780.56;5027433;28;20025;-77
2023/10/05 04:35:44;;;;;;;8.75;2.55;;;;;;;7.27;100.00;99775.75;5029221;28;20076;-80
2023/10/05 04:38:10;;;;;;;7.85;2.55;;;;;;;7.31;100.00;99760.94;5040975;28;20382;-76
2023/10/05 04:40:38;;;;;;;5.63;2.67;;;;;;;7.30;100.00;99778.09;5040293;28;20093;-78
2023/10/05 04:43:11;;;;;;;5.28;3.00;;;;;;;7.32;100.00;99766.19;5028226;28;20053;-79
2023/10/05 04:45:37;;;;;;;7.25;2.40;;;;;;;7.09;100.00;99732.72;5031127;28;20025;-79
2023/10/05 04:48:03;;;;;;;8.65;3.90;;;;;;;7.23;100.00;99751.84;5035113;28;20085;-75
2023/10/05 04:50:28;;;;;;;7.38;4.38;;;;;;;7.14;100.00;99749.25;5046401;28;20029;-77
2023/10/05 04:52:54;;;;;;;14.40;5.63;;;;;;;7.11;100.00;99763.03;5041522;28;20033;-77
2023/10/05 04:55:23;;;;;;;11.05;5.53;;;;;;;7.39;100.00;99763.72;5026842;28;20101;-78
2023/10/05 04:57:55;;;;;;;9.00;3.30;;;;;;;7.51;100.00;99773.19;5026846;28;20026;-76
2023/10/05 05:06:00;;;;;;;7.55;2.40;;;;;;;7.27;100.00;99759.59;5033811;28;20021;-76
2023/10/05 05:08:26;;;;;;;4.47;2.28;;;;;;;7.18;100.00;99756.00;5030992;28;20438;-77
2023/10/05 05:10:52;;;;;;;5.93;2.40;;;;;;;7.14;100.00;99760.00;5038929;28;20022;-66
2023/10/05 05:13:18;;;;;;;3.83;2.05;;;;;;;7.09;100.00;99771.25;5028334;28;20029;-79
2023/10/05 05:15:43;;;;;;;5.07;2.72;;;;;;;7.03;100.00;99767.34;5040622;28;20040;-80
2023/10/05 05:18:15;;;;;;;8.18;2.42;;;;;;;7.13;100.00;99777.16;5043821;28;20053;-78
2023/10/05 05:20:47;;;;;;;5.07;2.00;;;;;;;7.11;100.00;99763.03;5032809;28;20017;-77
2023/10/05 05:23:16;;;;;;;7.03;2.70;;;;;;;7.13;100.00;99775.31;5041523;28;20021;-79
2023/10/05 05:25:42;;;;;;;5.38;2.45;;;;;;;7.16;100.00;99785.75;5037535;28;20100;-72
2023/10/05 05:28:09;;;;;;;5.60;2.70;;;;;;;7.21;100.00;99782.59;5036047;28;20354;-72
2023/10/05 05:30:36;;;;;;;7.10;3.00;;;;;;;7.24;100.00;99768.81;5025461;28;20032;-71
2023/10/05 05:33:06;;;;;;;4.07;2.67;;;;;;;7.29;100.00;99774.56;5036482;28;20029;-72
2023/10/05 05:35:32;;;;;;;11.30;2.60;;;;;;;7.32;100.00;99765.34;5028303;28;20075;-71
2023/10/05 05:37:57;;;;;;;6.35;2.58;;;;;;;7.34;100.00;99771.41;5033553;28;20037;-71
2023/10/05 05:40:23;;;;;;;4.97;2.38;;;;;;;7.40;100.00;99784.22;5031540;28;20022;-72
2023/10/05 05:42:54;;;;;;;9.18;2.20;;;;;;;7.55;100.00;99779.94;5034818;28;20075;-72
2023/10/05 05:45:19;;;;;;;4.40;2.35;;;;;;;7.49;100.00;99775.19;5037665;28;20029;-72
2023/10/05 05:47:45;;;;;;;4.60;2.30;;;;;;;7.64;100.00;99797.81;5030025;28;20043;-72
2023/10/05 05:50:17;;;;;;;5.82;2.30;;;;;;;7.67;100.00;99784.03;5040990;28;20104;-74
2023/10/05 05:52:45;;;;;;;4.95;2.22;;;;;;;7.66;100.00;99779.66;5037654;28;20033;-73
2023/10/05 05:55:13;;;;;;;4.63;2.60;;;;;;;7.61;100.00;99765.00;5037732;28;20021;-75
2023/10/05 05:57:40;;;;;;;3.58;2.33;;;;;;;7.63;100.00;99763.00;5030919;28;20331;-78
2023/10/05 06:00:13;;;;;;;6.82;2.60;;;;;;;7.77;100.00;99766.91;5038758;28;20026;-78
2023/10/05 06:02:43;;;;;;;5.30;3.00;;;;;;;7.66;100.00;99760.81;5040760;28;20021;-76
2023/10/05 06:05:12;;;;;;;8.68;2.80;;;;;;;7.91;100.00;99774.38;5036539;28;20042;-78
2023/10/05 06:07:39;;;;;;;7.72;2.40;;;;;;;8.18;100.00;99780.56;5055366;28;20124;-76
2023/10/05 06:10:12;;;;;;;7.93;2.60;;;;;;;8.43;100.00;99776.94;5036632;28;20045;-75
2023/10/05 06:12:41;;;;;;;6.20;2.58;;;;;;;8.37;100.00;99747.06;5028507;28;20018;-78
2023/10/05 06:15:09;;;;;;;7.13;2.33;;;;;;;8.56;100.00;99766.50;5052522;28;20037;-79
2023/10/05 06:17:35;;;;;;;4.50;1.95;;;;;;;8.58;100.00;99762.81;5037035;28;20037;-77
2023/10/05 06:20:14;;;;;;;3.45;1.92;;;;;;;8.48;100.00;99762.94;5030364;28;20033;-76
2023/10/05 06:22:41;;;;;;;;;;;;;;;8.66;100.00;99785.22;5031774;28;20021;-79
2023/10/05 06:25:08;;;;;;;6.32;1.88;;;;;;;8.72;100.00;99776.50;5041631;28;19913;-75
2023/10/05 06:27:33;;;;;;;7.53;2.08;;;;;;;8.82;100.00;99780.84;5039481;28;20020;-72
2023/10/05 06:29:58;;;;;;;4.57;1.77;;;;;;;8.78;100.00;99769.56;5030317;28;20084;-76
2023/10/05 06:32:24;;;;;;;5.85;1.98;;;;;;;8.92;100.00;99792.34;5036192;28;20041;-71
2023/10/05 06:34:50;;;;;;;6.20;2.00;;;;;;;8.91;100.00;99778.00;5040748;28;20029;-76
2023/10/05 06:37:15;;;;;;;5.35;1.90;;;;;;;9.15;100.00;99784.41;5029415;28;20070;-75
2023/10/05 06:39:40;;;;;;;3.80;1.77;;;;;;;9.32;100.00;99790.63;5034412;28;20029;-72
2023/10/05 06:42:06;;;;;;;5.70;2.22;;;;;;;9.50;100.00;99793.97;5027576;28;20021;-69
2023/10/05 06:44:33;;;;;;;5.97;2.08;;;;;;;9.53;100.00;99792.78;5033765;28;20071;-71
2023/10/05 06:46:59;;;;;;;4.53;1.95;;;;;;;9.56;100.00;99800.53;5040771;28;20045;-71
2023/10/05 06:49:27;;;;;;;7.47;2.53;;;;;;;9.96;100.00;99812.25;5033707;28;20014;-74
2023/10/05 06:51:52;;;;;;;4.53;2.17;;;;;;;10.20;100.00;99806.75;5033240;28;20048;-72
2023/10/05 06:54:18;;;;;;;6.80;1.83;;;;;;;10.31;100.00;99776.63;5037572;28;20025;-72
2023/10/05 06:56:48;;;;;;;9.15;2.13;;;;;;;10.65;100.00;99797.03;5031853;28;20079;-74
2023/10/05 06:59:14;;;;;;;3.58;2.20;;;;;;;11.12;100.00;99782.47;5024211;28;20087;-74
2023/10/05 07:01:39;;;;;;;5.95;2.38;;;;;;;11.68;100.00;99786.66;5026423;28;20354;-73
2023/10/05 07:04:07;;;;;;;8.57;2.33;;;;;;;12.04;100.00;99787.59;5030655;28;20049;-72
2023/10/05 07:06:33;;;;;;;7.45;2.45;;;;;;;12.07;100.00;99778.25;5033147;28;20195;-74
2023/10/05 07:08:59;;;;;;;4.93;2.30;;;;;;;12.29;100.00;99795.44;5043058;28;20017;-75
2023/10/05 07:11:25;;;;;;;7.25;2.10;;;;;;;12.33;100.00;99799.44;5043228;28;20021;-75
2023/10/05 07:13:50;;;;;;;7.60;2.40;;;;;;;12.04;100.00;99779.47;5037753;28;20013;-73
2023/10/05 07:16:16;;;;;;;11.43;2.45;;;;;;;11.73;100.00;99776.09;5034104;28;20227;-75
2023/10/05 07:18:42;;;;;;;4.70;2.10;;;;;;;11.40;100.00;99762.91;5029313;28;20204;-71
2023/10/05 07:21:08;;;;;;;4.80;2.10;;;;;;;11.32;100.00;99792.81;5038826;28;20044;-78
2023/10/05 07:23:36;;;;;;;8.18;2.40;;;;;;;11.36;100.00;99791.38;5039573;28;20084;-72
2023/10/05 07:26:03;;;;;;;9.02;2.92;;;;;;;11.59;100.00;99803.00;5033572;28;20211;-72
2023/10/05 07:28:28;;;;;;;9.73;2.55;;;;;;;11.67;100.00;99790.41;5030217;28;20022;-72
2023/10/05 07:30:56;;;;;;;5.97;2.55;;;;;;;11.84;100.00;99789.16;5030365;28;20092;-72
2023/10/05 07:33:21;;;;;;;4.65;2.38;;;;;;;12.03;100.00;99793.25;5030791;28;20021;-78
2023/10/05 07:35:46;;;;;;;7.47;2.78;;;;;;;12.27;100.00;99778.50;5030714;28;20053;-72
2023/10/05 07:38:14;;;;;;;5.03;2.40;;;;;;;13.12;100.00;99782.28;5032588;28;20255;-73
2023/10/05 07:40:39;;;;;;;8.07;2.60;;;;;;;13.24;100.00;99771.75;5032713;28;20215;-72
2023/10/05 07:43:06;;;;;;;3.97;2.25;;;;;;;14.39;100.00;99778.50;5035380;28;20096;-74
2023/10/05 07:45:31;;;;;;;6.35;2.28;;;;;;;15.50;100.00;99797.94;5030365;28;20258;-72
2023/10/05 07:47:59;;;;;;;7.65;2.13;;;;;;;16.13;100.00;99782.94;5035633;28;20025;-74
2023/10/05 07:50:25;;;;;;;9.20;2.55;;;;;;;16.41;100.00;99756.16;5043914;28;20031;-74
2023/10/05 07:52:50;;;;;;;9.48;2.38;;;;;;;17.73;100.00;99783.56;5037951;28;20053;-74
2023/10/05 07:55:16;;;;;;;4.50;2.10;;;;;;;18.29;100.00;99778.16;5043291;28;20017;-74
2023/10/05 07:57:42;;;;;;;6.78;1.90;;;;;;;18.54;100.00;99770.63;5025534;28;20028;-74
2023/10/05 08:00:11;;;;;;;5.53;1.90;;;;;;;18.90;100.00;99782.59;5037762;28;20222;-78
2023/10/05 08:02:37;;;;;;;;;;;;;;;19.22;100.00;99802.34;5032989;28;20312;-77
2023/10/05 08:05:04;;;;;;;5.30;1.65;;;;;;;18.87;100.00;99791.28;5027798;28;19912;-76
2023/10/05 08:07:29;;;;;;;7.72;2.20;;;;;;;18.21;100.00;99770.22;5036669;28;20076;-77
2023/10/05 08:09:55;;;;;;;8.82;2.20;;;;;;;18.13;100.00;99791.38;5046605;28;20025;-78
2023/10/05 08:12:20;;;;;;;7.75;2.17;;;;;;;18.51;100.00;99798.50;5035153;28;20026;-78
2023/10/05 08:14:46;;;;;;;6.30;1.70;;;;;;;20.51;100.00;99790.47;5039457;28;20056;-75
2023/10/05 08:17:12;;;;;;;4.78;2.00;;;;;;;20.94;100.00;99804.78;5035308;28;20045;-74
2023/10/05 08:19:37;;;;;;;6.55;1.90;;;;;;;21.26;99.34;99798.75;5030651;28;20045;-74
2023/10/05 08:22:03;;;;;;;5.60;2.05;;;;;;;20.49;100.00;99811.88;5041296;28;20326;-76
2023/10/05 08:24:28;;;;;;;5.72;2.28;;;;;;;19.69;100.00;99802.41;5032745;28;20022;-75
2023/10/05 08:26:56;;;;;;;8.68;2.00;;;;;;;20.16;100.00;99812.53;5030860;28;20293;-75
2023/10/05 08:29:22;;;;;;;8.00;2.38;;;;;;;20.42;100.00;99807.59;5032460;28;20026;-74
2023/10/05 08:31:51;;;;;;;5.47;2.40;;;;;;;21.58;100.00;99816.38;5044288;28;20033;-78
2023/10/05 08:34:22;;;;;;;10.73;2.20;;;;;;;23.04;80.46;99816.13;5038376;28;20045;-76
2023/10/05 08:36:49;;;;;;;9.02;2.50;;;;;;;24.79;69.34;99791.31;5033816;28;20069;-75
2023/10/05 08:39:16;;;;;;;10.02;2.30;;;;;;;24.47;65.22;99789.53;5039404;28;20115;-74
2023/10/05 08:41:42;;;;;;;11.10;1.95;;;;;;;22.89;67.42;99802.97;5033173;28;20030;-73
2023/10/05 08:47:05;;;;;;;10.05;2.63;;;;;;;20.97;78.32;99823.56;5026968;28;20061;-74
2023/10/05 08:49:36;;;;;;;7.00;2.00;;;;;;;21.56;78.94;99802.03;5035941;28;20025;-75
2023/10/05 08:52:12;;;;;;;5.40;1.70;;;;;;;22.09;77.56;99802.53;5034288;28;20025;-75
2023/10/05 08:54:37;;;;;;;6.25;2.17;;;;;;;23.30;71.57;99815.28;5029827;28;20028;-75
2023/10/05 08:57:09;;;;;;;6.35;2.03;;;;;;;24.60;65.09;99805.66;5035998;28;20314;-72
2023/10/05 08:59:39;;;;;;;4.32;1.73;;;;;;;26.17;57.95;99781.06;5042063;28;20048;-73
2023/10/05 09:02:07;;;;;;;4.75;2.05;;;;;;;24.18;60.52;99809.31;5040632;28;20037;-73
2023/10/05 09:04:47;;;;;;;4.75;1.88;;;;;;;25.39;58.85;99809.16;5028736;28;20021;-73
2023/10/05 09:07:35;;;;;;;6.35;2.05;;;;;;;25.29;58.69;99800.84;5031179;28;20056;-74
2023/10/05 09:10:01;;;;;;;8.88;1.85;;;;;;;23.78;61.57;99805.19;5038720;28;20025;-75
2023/10/05 09:12:37;;;;;;;12.25;2.20;;;;;;;23.86;62.81;99811.31;5026351;28;20341;-75
2023/10/05 09:18:42;;;;;;;4.35;2.28;;;;;;;22.69;65.93;99811.88;5024263;28;20315;-75
2023/10/05 09:20:50;;;;;;;5.78;2.20;;;;;;;21.56;72.09;99803.94;5033241;28;20123;-75
2023/10/05 09:23:24;;;;;;;4.78;2.10;;;;;;;21.31;76.56;99805.16;5033525;28;20020;-75
2023/10/05 09:25:50;;;;;;;4.72;2.05;;;;;;;23.44;70.38;99799.09;5038305;28;20211;-75
2023/10/05 09:28:44;;;;;;;6.82;2.03;;;;;;;26.05;59.60;99816.59;5039934;28;20036;-75
2023/10/05 09:31:11;;;;;;;9.65;2.40;;;;;;;26.59;56.74;99817.81;5026581;28;20038;-72
2023/10/05 09:33:47;;;;;;;7.15;2.03;;;;;;;27.49;55.40;99836.16;5034002;28;20025;-75
2023/10/05 09:36:20;;;;;;;6.10;2.00;;;;;;;27.40;53.25;99799.00;5034642;28;20021;-75
2023/10/05 09:38:46;;;;;;;8.10;2.67;;;;;;;27.37;53.10;99810.69;5026339;28;20048;-75
2023/10/05 09:41:17;;;;;;;6.53;2.35;;;;;;;27.87;52.67;99811.38;5041520;28;20037;-76
2023/10/05 09:43:44;;;;;;;6.82;2.50;;;;;;;27.97;52.82;99805.72;5039006;28;20319;-75
2023/10/05 09:46:10;;;;;;;8.23;2.58;;;;;;;28.08;52.50;99800.88;5039217;28;20049;-75
2023/10/05 09:48:39;;;;;;;10.73;3.10;;;;;;;28.43;50.27;99805.19;5031217;28;20044;-75
2023/10/05 09:51:08;;;;;;;9.52;2.50;;;;;;;28.11;49.94;99797.50;5055859;28;20031;-77
2023/10/05 09:53:43;;;;;;;6.33;2.73;;;;;;;25.49;55.21;99799.97;5035389;28;20101;-77
2023/10/05 09:56:13;;;;;;;7.35;2.85;;;;;;;24.22;59.98;99820.66;5038712;28;20259;-76
2023/10/05 09:58:41;;;;;;;13.75;6.18;;;;;;;22.73;65.05;99815.78;5034361;28;20226;-71
2023/10/05 10:01:10;;;;;;;6.53;3.28;;;;;;;23.94;63.80;99819.09;5031798;28;20033;-72
2023/10/05 10:03:37;;;;;;;10.75;2.78;;;;;;;24.89;61.38;99814.31;5037727;28;20029;-72
2023/10/05 10:06:09;;;;;;;8.68;2.85;;;;;;;26.31;57.45;99800.69;5034456;28;20018;-72
2023/10/05 10:08:45;;;;;;;9.32;2.60;;;;;;;26.98;55.56;99803.16;5035254;28;20037;-72
2023/10/05 10:11:20;;;;;;;8.68;2.78;;;;;;;27.22;53.95;99795.81;5036860;28;20041;-73
2023/10/05 10:14:00;;;;;;;7.85;2.78;;;;;;;28.00;51.72;99805.13;5031255;28;20096;-72
2023/10/05 10:16:27;;;;;;;8.27;2.85;;;;;;;28.42;51.04;99809.09;5026854;28;20033;-72
2023/10/05 10:19:03;;;;;;;6.97;2.88;;;;;;;29.28;48.36;99807.09;5030181;28;20016;-75
2023/10/05 10:21:35;;;;;;;9.80;3.20;;;;;;;28.99;49.61;99787.72;5040159;28;20061;-79
2023/10/05 10:24:03;;;;;;;7.95;2.70;;;;;;;28.99;49.61;99809.19;5035988;28;20029;-74
2023/10/05 10:26:30;;;;;;;10.40;3.17;;;;;;;28.22;49.21;99799.06;5032068;28;20025;-74
2023/10/05 10:31:26;;;;;;;12.07;3.17;;;;;;;29.53;47.09;99805.03;5030485;28;20049;-73
2023/10/05 10:33:52;;;;;;;8.43;3.20;;;;;;;30.08;47.10;99805.19;5031134;28;20348;-74
2023/10/05 10:36:46;;;;;;;10.02;3.17;;;;;;;29.83;45.04;99803.69;5034544;28;20021;-74
2023/10/05 10:39:27;;;;;;;11.05;3.10;;;;;;;29.56;46.41;99792.44;5031042;28;20321;-75
2023/10/05 10:42:18;;;;;;;10.77;2.85;;;;;;;30.79;44.61;99811.25;5034433;28;20034;-75
2023/10/05 10:44:56;;;;;;;12.00;3.35;;;;;;;32.55;42.24;99805.75;5022552;28;20021;-74
2023/10/05 10:47:24;;;;;;;9.88;2.88;;;;;;;30.38;42.87;99802.09;5033694;28;20037;-74
2023/10/05 10:50:14;;;;;;;9.25;3.10;;;;;;;28.87;46.00;99815.22;5031195;28;20097;-76
2023/10/05 10:52:40;;;;;;;9.02;2.63;;;;;;;29.92;46.36;99813.00;5038906;28;20054;-76
2023/10/05 10:55:14;;;;;;;9.38;2.50;;;;;;;29.67;45.08;99802.31;5029532;28;20025;-78
2023/10/05 10:57:39;;;;;;;8.75;2.75;;;;;;;31.41;44.59;99798.69;5030932;28;20045;-73
2023/10/05 11:03:10;;;;;;;9.00;2.85;;;;;;;32.50;41.00;99771.09;5014296;28;20042;-79
2023/10/05 11:05:40;;;;;;;6.50;2.92;;;;;;;30.99;41.93;99770.88;5031675;28;20025;-80
2023/10/05 11:08:10;;;;;;;8.30;2.90;;;;;;;31.90;40.96;99780.06;5036609;28;20017;-79
2023/10/05 11:10:37;;;;;;;7.15;2.92;;;;;;;30.99;40.81;99761.66;5037870;28;20025;-73
2023/10/05 11:13:18;;;;;;;7.63;2.67;;;;;;;32.70;40.92;99780.88;5043646;28;20319;-74
2023/10/05 11:16:00;;;;;;;9.07;2.90;;;;;;;31.48;41.74;99770.28;5041872;28;20029;-73
2023/10/05 11:18:39;;;;;;;7.25;2.58;;;;;;;30.30;43.88;99776.56;5032114;28;20017;-73
2023/10/05 11:21:14;;;;;;;7.10;2.88;;;;;;;29.37;44.21;99784.94;5035441;28;20100;-73
2023/10/05 11:23:47;;;;;;;8.95;2.75;;;;;;;27.92;46.00;99789.09;5033954;28;20037;-74
2023/10/05 11:26:26;;;;;;;10.63;2.80;;;;;;;27.28;47.77;99772.41;5029138;28;20022;-73
2023/10/05 11:28:53;;;;;;;8.13;3.08;;;;;;;26.53;48.95;99775.38;5026329;28;20021;-73
2023/10/05 11:31:22;;;;;;;9.32;3.03;;;;;;;25.63;48.90;99783.66;5034722;28;20036;-74
2023/10/05 11:33:49;;;;;;;11.40;2.97;;;;;;;25.46;50.63;99773.66;5035868;28;20068;-75
2023/10/05 11:36:17;;;;;;;10.63;3.00;;;;;;;24.78;50.47;99782.16;5041044;28;20023;-76
2023/10/05 11:38:48;;;;;;;9.57;2.80;;;;;;;23.01;54.42;99778.03;5041234;28;20025;-76
2023/10/05 11:41:16;;;;;;;9.65;3.33;;;;;;;22.96;55.57;99771.34;5030123;28;20029;-75
2023/10/05 11:43:43;;;;;;;7.40;2.80;;;;;;;23.32;57.87;99768.09;5038603;28;20037;-75
2023/10/05 11:46:24;;;;;;;8.45;2.90;;;;;;;23.19;58.94;99753.63;5037139;28;20089;-74
2023/10/05 11:48:55;;;;;;;6.95;2.50;;;;;;;23.16;59.44;99767.09;5031291;28;20025;-74
2023/10/05 11:51:41;;;;;;;8.57;2.67;;;;;;;23.31;61.23;99785.72;5037428;28;20034;-72
2023/10/05 11:54:10;;;;;;;5.47;2.28;;;;;;;23.05;60.23;99762.59;5040507;28;20025;-72
2023/10/05 11:56:38;;;;;;;9.25;2.83;;;;;;;22.82;62.11;99789.41;5032705;28;20030;-74
2023/10/05 11:59:07;;;;;;;7.75;2.53;;;;;;;22.88;60.45;99773.72;5027761;28;20056;-73
2023/10/05 12:01:33;;;;;;;12.32;2.78;;;;;;;22.60;62.05;99753.56;5027543;28;20148;-73
2023/10/05 12:03:58;;;;;;;11.45;3.05;;;;;;;22.46;62.33;99760.59;5034413;28;20029;-73
2023/10/05 12:06:25;;;;;;;7.82;2.67;;;;;;;21.99;62.36;99750.03;5033623;28;20029;-71
2023/10/05 12:08:53;;;;;;;10.18;2.50;;;;;;;21.51;65.50;99757.91;5031150;28;20021;-73
2023/10/05 12:11:23;;;;;;;9.37;2.53;;;;;;;21.05;67.77;99768.13;5034053;28;20052;-74